Time;durP1;ratioP1;P1;durP2;ratioP2;P2;SDS_P1;SDS_P2;PMS_P1;PMS_P2;Temp;Humidity;BMP_temperature;BMP_pressure;BME280_temperature;BME280_humidity;BME280_pressure;Samples;Min_cycle;Max_cycle;Signal;HPM_P1;HPM_P2
2022/07/31 00:00:41;;;;;;;14.27;7.28;;;16.80;87.70;;;;;;5030278;28;20461;-74
2022/07/31 00:03:07;;;;;;;13.75;8.35;;;16.70;87.70;;;;;;5028034;28;20025;-74
2022/07/31 00:05:33;;;;;;;13.93;7.35;;;16.70;87.80;;;;;;5029820;28;20437;-74
2022/07/31 00:07:59;;;;;;;11.43;7.53;;;16.60;87.70;;;;;;5028977;28;20036;-74
2022/07/31 00:10:25;;;;;;;15.35;7.10;;;16.70;87.70;;;;;;5031761;28;20025;-74
2022/07/31 00:12:51;;;;;;;13.23;7.75;;;16.60;87.70;;;;;;5031708;28;20115;-74
2022/07/31 00:15:17;;;;;;;10.80;7.93;;;16.60;87.70;;;;;;5033021;28;20104;-74
2022/07/31 00:17:43;;;;;;;15.05;7.50;;;16.60;87.70;;;;;;5031700;28;20037;-74
2022/07/31 00:20:12;;;;;;;11.88;7.78;;;16.60;87.70;;;;;;5032968;28;20384;-74
2022/07/31 00:22:38;;;;;;;13.52;8.40;;;16.60;87.80;;;;;;5027302;28;20037;-74
2022/07/31 00:25:04;;;;;;;12.57;8.13;;;16.60;88.00;;;;;;5032101;28;20148;-74
2022/07/31 00:27:30;;;;;;;11.98;8.25;;;16.60;88.10;;;;;;5033114;28;20338;-73
2022/07/31 00:29:56;;;;;;;12.23;8.63;;;16.60;88.00;;;;;;5033646;28;20025;-74
2022/07/31 00:32:21;;;;;;;15.82;8.70;;;16.60;88.00;;;;;;5031565;28;20493;-73
2022/07/31 00:34:47;;;;;;;17.83;9.10;;;16.60;88.20;;;;;;5027114;28;20108;-74
2022/07/31 00:37:12;;;;;;;16.88;9.43;;;16.60;88.40;;;;;;5032176;28;20072;-74
2022/07/31 00:39:38;;;;;;;12.43;8.82;;;16.50;88.40;;;;;;5032316;28;20053;-74
2022/07/31 00:42:04;;;;;;;14.10;9.60;;;16.50;88.50;;;;;;5024644;28;20088;-74
2022/07/31 00:44:30;;;;;;;13.32;9.90;;;16.50;88.40;;;;;;5031942;28;20017;-74
2022/07/31 00:46:55;;;;;;;14.77;9.48;;;16.40;88.70;;;;;;5030972;28;20042;-74
2022/07/31 00:49:21;;;;;;;16.90;9.93;;;16.40;88.90;;;;;;5032384;28;20039;-74
2022/07/31 00:51:46;;;;;;;13.35;8.98;;;16.40;88.70;;;;;;5025871;28;20033;-74
2022/07/31 00:54:12;;;;;;;14.95;9.65;;;16.40;88.80;;;;;;5031842;28;20396;-73
2022/07/31 00:56:38;;;;;;;14.43;10.15;;;16.40;89.00;;;;;;5032760;28;20087;-74
2022/07/31 00:59:04;;;;;;;14.45;9.45;;;16.40;88.90;;;;;;5033035;28;20633;-74
2022/07/31 01:01:29;;;;;;;12.57;9.85;;;16.40;89.20;;;;;;5031599;28;20029;-74
2022/07/31 01:03:55;;;;;;;15.60;9.82;;;16.30;89.00;;;;;;5031497;28;20076;-74
2022/07/31 01:06:21;;;;;;;13.05;9.25;;;16.30;89.20;;;;;;5029575;28;20377;-74
2022/07/31 01:08:47;;;;;;;14.82;10.00;;;16.30;89.40;;;;;;5027904;28;20039;-74
2022/07/31 01:11:26;;;;;;;11.95;9.32;;;16.20;89.70;;;;;;5032772;28;20056;-74
2022/07/31 01:14:06;;;;;;;14.25;9.02;;;16.10;90.00;;;;;;5031748;28;20059;-74
2022/07/31 01:16:37;;;;;;;15.50;8.95;;;16.10;90.00;;;;;;5030422;28;20103;-74
2022/07/31 01:19:39;;;;;;;13.70;8.98;;;16.00;90.00;;;;;;5031785;28;20075;-74
2022/07/31 01:22:42;;;;;;;11.88;8.45;;;16.00;89.80;;;;;;5031708;28;20033;-74
2022/07/31 01:25:32;;;;;;;15.40;9.55;;;15.90;89.80;;;;;;5031693;28;20032;-73
2022/07/31 01:28:09;;;;;;;13.70;9.55;;;15.90;90.40;;;;;;5032023;28;20045;-74
2022/07/31 01:31:12;;;;;;;13.65;9.80;;;15.80;90.30;;;;;;5032588;28;20061;-74
2022/07/31 01:33:58;;;;;;;13.57;9.48;;;15.80;90.50;;;;;;5019786;28;20046;-74
2022/07/31 01:36:27;;;;;;;12.10;9.38;;;15.90;90.70;;;;;;5019924;28;20115;-74
2022/07/31 01:38:55;;;;;;;16.15;10.18;;;15.80;90.30;;;;;;5030521;28;20053;-74
2022/07/31 01:41:27;;;;;;;16.95;9.48;;;15.80;90.20;;;;;;5023723;28;20025;-74
2022/07/31 01:43:55;;;;;;;16.40;10.18;;;15.80;90.50;;;;;;5031881;28;20045;-74
2022/07/31 01:46:23;;;;;;;14.48;9.88;;;15.90;90.60;;;;;;5028204;28;20022;-73
2022/07/31 01:48:51;;;;;;;16.98;12.20;;;15.90;90.70;;;;;;5031078;28;20076;-74
2022/07/31 01:51:17;;;;;;;14.73;11.00;;;15.90;91.10;;;;;;5032029;28;20547;-74
2022/07/31 01:53:45;;;;;;;14.65;10.68;;;15.90;91.50;;;;;;5030403;28;20037;-74
2022/07/31 01:56:11;;;;;;;14.20;9.68;;;15.90;91.60;;;;;;5031970;28;20100;-74
2022/07/31 01:58:38;;;;;;;15.68;8.88;;;15.80;91.80;;;;;;5031552;28;20396;-74
2022/07/31 02:01:07;;;;;;;16.48;9.07;;;15.90;91.50;;;;;;5031559;28;20022;-74
2022/07/31 02:03:34;;;;;;;14.55;9.80;;;15.80;91.30;;;;;;5030419;28;20030;-74
2022/07/31 02:06:01;;;;;;;11.65;9.32;;;15.90;91.40;;;;;;5031356;28;20029;-74
2022/07/31 02:08:28;;;;;;;15.02;11.05;;;15.90;91.60;;;;;;5030376;28;20504;-74
2022/07/31 02:10:54;;;;;;;14.98;11.23;;;15.90;91.80;;;;;;5031448;28;20052;-74
2022/07/31 02:13:22;;;;;;;20.23;11.23;;;15.90;92.00;;;;;;5030857;28;20109;-74
2022/07/31 02:15:49;;;;;;;14.15;10.07;;;15.90;91.90;;;;;;5029633;28;20116;-74
2022/07/31 02:18:15;;;;;;;14.45;10.10;;;15.90;91.60;;;;;;5029775;28;20095;-74
2022/07/31 02:20:42;;;;;;;14.68;10.38;;;15.90;91.60;;;;;;5030994;28;20423;-74
2022/07/31 02:23:07;;;;;;;15.35;10.82;;;15.90;91.90;;;;;;5030484;28;20108;-73
2022/07/31 02:25:35;;;;;;;17.13;10.48;;;15.80;92.10;;;;;;5030546;28;20105;-74
2022/07/31 02:28:06;;;;;;;12.15;10.32;;;15.80;92.30;;;;;;5031423;28;20030;-73
2022/07/31 02:30:32;;;;;;;17.63;12.18;;;15.80;92.30;;;;;;5031374;28;20037;-74
2022/07/31 02:32:58;;;;;;;15.60;10.93;;;15.70;92.70;;;;;;5024041;28;20038;-74
2022/07/31 02:35:24;;;;;;;16.98;12.02;;;15.70;92.90;;;;;;5023768;28;20037;-74
2022/07/31 02:37:52;;;;;;;13.45;11.57;;;15.70;92.90;;;;;;5029523;28;20091;-74
2022/07/31 02:40:19;;;;;;;18.50;11.30;;;15.60;92.90;;;;;;5030466;28;20108;-73
2022/07/31 02:42:46;;;;;;;16.63;11.45;;;15.50;92.50;;;;;;5030738;28;20021;-74
2022/07/31 02:45:12;;;;;;;17.15;11.32;;;15.50;92.80;;;;;;5031099;28;20028;-74
2022/07/31 02:47:38;;;;;;;16.88;11.60;;;15.50;93.00;;;;;;5026685;28;20041;-74
2022/07/31 02:50:05;;;;;;;15.73;11.73;;;15.50;93.10;;;;;;5030565;28;20037;-74
2022/07/31 02:52:32;;;;;;;17.67;11.95;;;15.50;93.10;;;;;;5029694;28;20025;-74
2022/07/31 02:54:58;;;;;;;18.23;12.95;;;15.50;92.90;;;;;;5030158;28;20029;-73
2022/07/31 02:57:24;;;;;;;18.75;13.77;;;15.50;92.80;;;;;;5030324;28;20061;-74
2022/07/31 02:59:49;;;;;;;18.40;13.27;;;15.50;93.00;;;;;;5031016;28;20044;-73
2022/07/31 03:02:15;;;;;;;17.35;13.43;;;15.50;93.00;;;;;;5029091;28;20067;-74
2022/07/31 03:04:40;;;;;;;19.85;13.25;;;15.50;92.90;;;;;;5030175;28;20018;-74
2022/07/31 03:07:06;;;;;;;20.80;13.93;;;15.50;92.90;;;;;;5029974;28;20105;-74
2022/07/31 03:09:31;;;;;;;19.02;14.30;;;15.50;92.90;;;;;;5029861;28;20021;-73
2022/07/31 03:11:57;;;;;;;19.20;13.70;;;15.50;92.80;;;;;;5016868;28;20035;-73
2022/07/31 03:14:24;;;;;;;21.27;14.40;;;15.50;92.60;;;;;;5030451;28;20546;-74
2022/07/31 03:16:51;;;;;;;18.55;14.85;;;15.50;92.80;;;;;;5026550;28;20030;-74
2022/07/31 03:19:19;;;;;;;22.00;14.25;;;15.50;93.30;;;;;;5030012;28;20158;-74
2022/07/31 03:21:46;;;;;;;19.30;15.45;;;15.40;93.50;;;;;;5029738;28;20029;-74
2022/07/31 03:24:12;;;;;;;18.58;13.32;;;15.40;93.60;;;;;;5029010;28;20035;-74
2022/07/31 03:26:37;;;;;;;17.80;15.32;;;15.40;93.60;;;;;;5030089;28;20025;-74
2022/07/31 03:29:03;;;;;;;21.13;15.07;;;15.40;93.60;;;;;;5030294;28;20448;-73
2022/07/31 03:31:29;;;;;;;21.27;14.32;;;15.30;93.60;;;;;;5029355;28;20035;-73
2022/07/31 03:33:55;;;;;;;20.55;14.50;;;15.30;93.10;;;;;;5017972;28;20033;-74
2022/07/31 03:36:21;;;;;;;23.05;16.05;;;15.30;93.20;;;;;;5018988;28;20456;-74
2022/07/31 03:38:46;;;;;;;23.38;14.93;;;15.20;93.60;;;;;;5023470;28;20152;-74
2022/07/31 03:41:12;;;;;;;19.50;15.43;;;15.10;93.90;;;;;;5029944;28;20072;-74
2022/07/31 03:43:38;;;;;;;18.90;14.77;;;15.10;93.80;;;;;;5029941;28;20029;-74
2022/07/31 03:46:05;;;;;;;18.98;14.32;;;15.10;93.70;;;;;;5032698;28;20433;-74
2022/07/31 03:48:30;;;;;;;19.65;15.23;;;15.00;93.80;;;;;;5032551;28;20030;-74
2022/07/31 03:50:56;;;;;;;23.63;17.63;;;15.00;93.90;;;;;;5032380;28;20326;-74
2022/07/31 03:53:23;;;;;;;24.70;16.50;;;15.00;94.30;;;;;;5027068;28;20040;-74
2022/07/31 03:55:49;;;;;;;20.90;16.08;;;15.00;94.30;;;;;;5033563;28;20152;-73
2022/07/31 03:58:17;;;;;;;22.17;16.30;;;15.00;94.50;;;;;;5032950;28;20059;-73
2022/07/31 04:00:43;;;;;;;20.98;17.00;;;15.00;94.60;;;;;;5022746;28;20032;-73
2022/07/31 04:03:11;;;;;;;26.23;17.35;;;15.00;94.60;;;;;;5032041;28;20059;-73
2022/07/31 04:05:38;;;;;;;23.88;17.10;;;15.00;94.60;;;;;;5031121;28;20045;-74
2022/07/31 04:08:04;;;;;;;22.55;17.35;;;15.00;94.80;;;;;;5033058;28;20036;-73
2022/07/31 04:10:30;;;;;;;23.02;16.70;;;15.00;94.80;;;;;;5023602;28;20025;-74
2022/07/31 04:12:55;;;;;;;27.42;17.80;;;15.10;94.80;;;;;;5033926;28;20028;-73
2022/07/31 04:15:21;;;;;;;27.98;18.15;;;15.10;94.80;;;;;;5033580;28;20499;-73
2022/07/31 04:17:47;;;;;;;24.33;17.67;;;15.10;94.70;;;;;;5030266;28;20049;-73
2022/07/31 04:20:12;;;;;;;22.08;17.10;;;15.20;94.80;;;;;;5033811;28;20503;-73
2022/07/31 04:22:38;;;;;;;27.50;17.52;;;15.20;94.70;;;;;;5032726;28;20060;-73
2022/07/31 04:25:04;;;;;;;22.55;16.33;;;15.30;94.60;;;;;;5033252;28;20026;-73
2022/07/31 04:27:29;;;;;;;22.50;17.90;;;15.30;94.60;;;;;;5033187;28;20516;-73
2022/07/31 04:29:56;;;;;;;22.45;16.23;;;15.40;94.50;;;;;;5033790;28;20041;-73
2022/07/31 04:32:22;;;;;;;21.30;17.27;;;15.40;94.40;;;;;;5031188;28;20034;-73
2022/07/31 04:34:48;;;;;;;23.27;16.67;;;15.50;94.40;;;;;;5032816;28;20116;-73
2022/07/31 04:37:14;;;;;;;20.30;16.05;;;15.50;94.30;;;;;;5032146;28;20576;-73
2022/07/31 04:39:39;;;;;;;25.13;16.20;;;15.60;94.30;;;;;;5031040;28;20052;-73
2022/07/31 04:42:05;;;;;;;20.33;15.65;;;15.70;94.10;;;;;;5032064;28;20032;-73
2022/07/31 04:44:30;;;;;;;26.50;16.58;;;15.70;93.80;;;;;;5032139;28;20582;-73
2022/07/31 04:47:01;;;;;;;22.08;15.27;;;15.80;93.70;;;;;;5029255;28;20029;-73
2022/07/31 04:49:26;;;;;;;21.35;16.02;;;15.90;93.60;;;;;;5030493;28;20029;-73
2022/07/31 04:51:52;;;;;;;21.95;15.27;;;16.00;93.40;;;;;;5031379;28;20503;-73
2022/07/31 04:54:18;;;;;;;22.20;14.38;;;16.10;93.10;;;;;;5030887;28;20036;-73
2022/07/31 04:56:43;;;;;;;18.70;14.40;;;16.20;92.90;;;;;;5031434;28;20036;-73
2022/07/31 04:59:14;;;;;;;20.25;13.05;;;16.30;92.80;;;;;;5029636;28;20060;-73
2022/07/31 05:01:41;;;;;;;17.85;13.77;;;16.40;92.20;;;;;;5030243;28;20044;-73
2022/07/31 05:04:08;;;;;;;19.20;12.85;;;16.40;92.10;;;;;;5030813;28;20488;-73
2022/07/31 05:06:36;;;;;;;16.27;13.02;;;16.50;91.90;;;;;;5031366;28;20029;-73
2022/07/31 05:09:04;;;;;;;19.25;12.40;;;16.50;91.80;;;;;;5023613;28;20018;-73
2022/07/31 05:11:30;;;;;;;15.52;12.23;;;16.50;91.70;;;;;;5028635;28;20453;-73
2022/07/31 05:13:58;;;;;;;14.32;12.07;;;16.60;91.60;;;;;;5030219;28;20026;-73
2022/07/31 05:16:25;;;;;;;14.68;11.73;;;16.70;91.50;;;;;;5028262;28;20120;-73
2022/07/31 05:18:51;;;;;;;17.50;11.93;;;16.70;91.00;;;;;;5030309;28;20029;-73
2022/07/31 05:21:17;;;;;;;15.30;11.38;;;16.70;91.20;;;;;;5031586;28;20031;-73
2022/07/31 05:23:44;;;;;;;15.23;10.93;;;16.70;91.10;;;;;;5030283;28;20033;-73
2022/07/31 05:26:10;;;;;;;14.05;10.75;;;16.70;90.60;;;;;;5031516;28;20025;-71
2022/07/31 05:28:37;;;;;;;17.77;11.30;;;16.70;90.50;;;;;;5030114;28;20055;-70
2022/07/31 05:31:02;;;;;;;14.23;10.40;;;16.70;90.80;;;;;;5030359;28;20021;-70
2022/07/31 05:33:28;;;;;;;15.05;10.23;;;16.70;90.80;;;;;;5018900;28;20083;-71
2022/07/31 05:35:57;;;;;;;17.15;9.90;;;16.70;90.60;;;;;;5031199;28;20034;-70
2022/07/31 05:38:23;;;;;;;18.13;10.82;;;16.80;90.20;;;;;;4995427;28;1014577;-70
2022/07/31 05:40:48;;;;;;;14.25;10.20;;;17.00;90.00;;;;;;5031829;28;20457;-71
2022/07/31 05:43:14;;;;;;;19.38;10.68;;;17.10;90.10;;;;;;5031964;28;20033;-70
2022/07/31 05:45:40;;;;;;;15.43;11.10;;;17.10;90.10;;;;;;5031016;28;20033;-70
2022/07/31 05:48:05;;;;;;;15.25;11.00;;;17.20;89.80;;;;;;5030187;28;20033;-70
2022/07/31 05:50:32;;;;;;;16.83;10.32;;;17.30;89.70;;;;;;5019290;28;20083;-71
2022/07/31 05:52:58;;;;;;;15.45;10.70;;;17.30;89.40;;;;;;5030634;28;20022;-70
2022/07/31 05:55:24;;;;;;;14.85;10.27;;;17.40;89.20;;;;;;5031059;28;20029;-70
2022/07/31 05:57:49;;;;;;;13.27;9.75;;;17.50;89.30;;;;;;5018035;28;20030;-70
2022/07/31 06:00:15;;;;;;;14.77;10.32;;;17.50;88.80;;;;;;5032011;28;20052;-71
2022/07/31 06:02:41;;;;;;;13.85;9.52;;;17.70;88.60;;;;;;5029807;28;20028;-71
2022/07/31 06:05:07;;;;;;;17.73;9.48;;;17.60;87.90;;;;;;5031567;28;20068;-70
2022/07/31 06:07:33;;;;;;;14.02;8.48;;;17.60;87.60;;;;;;5029956;28;20029;-71
2022/07/31 06:09:58;;;;;;;10.57;8.27;;;17.80;87.80;;;;;;5031044;28;20032;-71
2022/07/31 06:12:24;;;;;;;12.50;8.23;;;18.00;87.30;;;;;;5031318;28;20053;-71
2022/07/31 06:14:49;;;;;;;13.43;6.93;;;18.00;86.60;;;;;;5029388;28;20073;-71
2022/07/31 06:17:15;;;;;;;9.57;7.10;;;18.00;86.40;;;;;;5029195;28;20122;-70
2022/07/31 06:19:40;;;;;;;8.75;6.03;;;18.10;86.00;;;;;;5030879;28;20022;-71
2022/07/31 06:22:06;;;;;;;10.80;6.07;;;18.20;85.00;;;;;;5024526;28;20032;-71
2022/07/31 06:24:31;;;;;;;9.43;6.30;;;18.10;83.60;;;;;;5030354;28;20029;-71
2022/07/31 06:27:01;;;;;;;11.23;6.25;;;18.10;83.20;;;;;;5031349;28;20378;-71
2022/07/31 06:29:27;;;;;;;11.48;5.78;;;18.30;83.80;;;;;;5031386;28;20029;-71
2022/07/31 06:31:53;;;;;;;8.82;5.97;;;18.40;83.20;;;;;;5023931;28;20480;-71
2022/07/31 06:34:18;;;;;;;13.68;6.03;;;18.20;83.10;;;;;;5024041;28;20032;-71
2022/07/31 06:36:44;;;;;;;8.38;5.38;;;18.20;83.70;;;;;;5030719;28;20029;-70
2022/07/31 06:39:09;;;;;;;7.47;4.72;;;18.30;83.40;;;;;;5029674;28;20540;-71
2022/07/31 06:41:45;;;;;;;11.43;4.55;;;18.40;83.00;;;;;;5029539;28;20029;-71
2022/07/31 06:44:12;;;;;;;12.07;5.25;;;18.50;83.10;;;;;;5031034;28;20028;-71
2022/07/31 06:46:38;;;;;;;9.73;4.97;;;18.50;82.40;;;;;;5028245;28;20033;-70
2022/07/31 06:49:04;;;;;;;8.23;5.07;;;18.50;81.40;;;;;;5030073;28;20053;-71
2022/07/31 06:51:29;;;;;;;9.25;5.07;;;18.70;81.50;;;;;;5024280;28;20064;-71
2022/07/31 06:53:55;;;;;;;8.82;4.88;;;18.80;81.20;;;;;;5027586;28;20021;-71
2022/07/31 06:56:21;;;;;;;10.50;5.03;;;18.90;81.20;;;;;;5018855;28;20030;-71
2022/07/31 06:58:46;;;;;;;6.72;4.85;;;19.00;81.40;;;;;;5029193;28;20428;-70
2022/07/31 07:01:12;;;;;;;8.63;5.78;;;19.10;80.50;;;;;;5030358;28;20476;-70
2022/07/31 07:03:38;;;;;;;7.80;5.68;;;19.30;80.80;;;;;;5029170;28;20389;-71
2022/07/31 07:06:04;;;;;;;9.65;5.50;;;19.20;80.20;;;;;;5030371;28;20140;-71
2022/07/31 07:08:29;;;;;;;8.57;5.05;;;19.30;80.80;;;;;;5029102;28;20392;-71
2022/07/31 07:10:55;;;;;;;9.77;5.93;;;19.20;81.70;;;;;;5030750;28;20044;-71
2022/07/31 07:13:20;;;;;;;8.60;5.60;;;19.30;81.70;;;;;;5030083;28;20040;-71
2022/07/31 07:15:46;;;;;;;10.07;5.32;;;19.40;81.70;;;;;;5029222;28;20033;-71
2022/07/31 07:18:12;;;;;;;10.60;5.57;;;19.50;81.40;;;;;;5019847;28;20025;-71
2022/07/31 07:20:38;;;;;;;9.40;4.40;;;19.80;80.30;;;;;;5030175;28;20385;-71
2022/07/31 07:23:03;;;;;;;7.45;5.05;;;20.10;80.40;;;;;;5029605;28;20033;-71
2022/07/31 07:25:29;;;;;;;6.65;4.18;;;20.10;78.60;;;;;;5029857;28;20033;-71
2022/07/31 07:27:55;;;;;;;8.48;3.95;;;20.10;76.90;;;;;;5025556;28;20030;-71
2022/07/31 07:30:21;;;;;;;9.63;4.40;;;20.30;76.50;;;;;;5015927;28;20032;-71
2022/07/31 07:32:47;;;;;;;6.72;3.63;;;20.30;76.10;;;;;;5018554;28;20112;-70
2022/07/31 07:35:13;;;;;;;6.75;3.70;;;19.90;75.20;;;;;;5027541;28;20374;-71
2022/07/31 07:37:39;;;;;;;5.65;3.38;;;19.90;76.80;;;;;;5027571;28;20052;-71
2022/07/31 07:40:06;;;;;;;6.68;3.45;;;20.00;76.50;;;;;;5026346;28;20036;-71
2022/07/31 07:42:31;;;;;;;7.40;3.50;;;20.10;75.60;;;;;;5028320;28;20026;-71
2022/07/31 07:44:57;;;;;;;6.78;3.50;;;20.30;76.50;;;;;;5019842;28;20041;-71
2022/07/31 07:47:23;;;;;;;7.60;3.40;;;20.30;75.40;;;;;;5028041;28;20030;-71
2022/07/31 07:49:48;;;;;;;8.48;3.60;;;20.40;76.20;;;;;;5029980;28;20396;-71
2022/07/31 07:52:14;;;;;;;8.40;3.53;;;20.40;74.70;;;;;;5029136;28;20476;-71
2022/07/31 07:54:41;;;;;;;8.23;3.05;;;20.50;75.20;;;;;;5028371;28;20030;-71
2022/07/31 07:57:14;;;;;;;8.27;3.10;;;20.60;74.60;;;;;;5029560;28;20026;-71
2022/07/31 07:59:39;;;;;;;5.90;3.70;;;21.10;74.50;;;;;;5030252;28;20480;-70
2022/07/31 08:02:05;;;;;;;7.80;2.72;;;21.20;71.30;;;;;;5028535;28;20030;-71
2022/07/31 08:04:30;;;;;;;5.95;3.00;;;21.50;71.70;;;;;;5029249;28;20059;-71
2022/07/31 08:06:56;;;;;;;6.15;2.65;;;21.50;71.40;;;;;;5028856;28;20026;-71
2022/07/31 08:09:23;;;;;;;4.55;2.53;;;21.60;68.80;;;;;;5029404;28;20025;-71
2022/07/31 08:11:48;;;;;;;4.70;2.55;;;21.90;69.60;;;;;;5029814;28;20021;-71
2022/07/31 08:14:14;;;;;;;5.15;2.10;;;22.10;66.50;;;;;;5027294;28;20029;-71
2022/07/31 08:16:39;;;;;;;8.13;2.38;;;22.10;67.10;;;;;;5019681;28;20092;-71
2022/07/31 08:19:05;;;;;;;5.25;2.35;;;22.30;66.80;;;;;;5028955;28;20083;-71
2022/07/31 08:21:31;;;;;;;6.13;2.67;;;22.50;65.60;;;;;;5029492;28;20330;-71
2022/07/31 08:23:57;;;;;;;6.28;2.85;;;22.50;64.80;;;;;;5028664;28;20038;-71
2022/07/31 08:26:22;;;;;;;4.63;2.22;;;22.50;64.50;;;;;;5029825;28;20034;-71
2022/07/31 08:28:48;;;;;;;4.00;2.42;;;22.70;65.90;;;;;;5028701;28;20474;-71
2022/07/31 08:31:14;;;;;;;7.88;2.67;;;22.70;64.90;;;;;;5031132;28;20125;-71
2022/07/31 08:33:40;;;;;;;8.13;2.40;;;22.70;64.50;;;;;;5032145;28;20075;-71
2022/07/31 08:36:07;;;;;;;4.93;2.00;;;22.90;64.40;;;;;;5033449;28;20091;-71
2022/07/31 08:38:34;;;;;;;3.10;2.10;;;23.60;64.40;;;;;;5031229;28;20045;-71
2022/07/31 08:41:00;;;;;;;5.40;2.63;;;23.00;61.80;;;;;;5033606;28;20021;-71
2022/07/31 08:43:26;;;;;;;6.90;2.13;;;23.00;64.00;;;;;;5030706;28;20032;-71
2022/07/31 08:45:52;;;;;;;6.95;2.25;;;23.30;63.60;;;;;;5033172;28;20021;-71
2022/07/31 08:48:22;;;;;;;5.10;2.10;;;23.50;63.30;;;;;;5017757;28;20423;-71
2022/07/31 08:50:48;;;;;;;4.68;2.17;;;23.30;62.70;;;;;;5032202;28;20057;-71
2022/07/31 08:53:15;;;;;;;5.10;2.20;;;23.60;63.40;;;;;;5029626;28;20029;-71
2022/07/31 08:55:43;;;;;;;7.13;2.35;;;23.50;61.70;;;;;;5020662;28;20060;-71
2022/07/31 08:58:08;;;;;;;5.03;2.35;;;23.40;64.50;;;;;;5032488;28;20025;-71
2022/07/31 09:00:34;;;;;;;4.50;2.08;;;23.50;64.60;;;;;;5032973;28;20100;-71
2022/07/31 09:02:59;;;;;;;3.88;1.98;;;23.50;64.10;;;;;;5030651;28;20449;-71
2022/07/31 09:05:25;;;;;;;5.88;2.25;;;23.20;64.60;;;;;;5032580;28;20076;-71
2022/07/31 09:07:51;;;;;;;6.05;2.78;;;23.40;63.40;;;;;;5031618;28;20037;-71
2022/07/31 09:10:22;;;;;;;4.97;2.30;;;23.50;64.20;;;;;;5020632;28;20068;-71
2022/07/31 09:12:48;;;;;;;5.53;2.22;;;23.70;63.60;;;;;;5031351;28;20048;-71
2022/07/31 09:15:28;;;;;;;5.97;2.42;;;23.50;63.30;;;;;;5032720;28;20477;-71
2022/07/31 09:17:54;;;;;;;3.38;2.05;;;23.80;64.90;;;;;;5017791;28;20022;-71
2022/07/31 09:20:22;;;;;;;3.70;2.10;;;23.80;63.30;;;;;;5032600;28;20038;-71
2022/07/31 09:23:03;;;;;;;3.90;2.17;;;23.60;63.70;;;;;;5031633;28;20041;-71
2022/07/31 09:25:29;;;;;;;4.43;2.13;;;24.00;62.90;;;;;;5026263;28;20025;-71
2022/07/31 09:28:04;;;;;;;5.57;2.28;;;24.00;64.60;;;;;;5025693;28;20018;-71
2022/07/31 09:30:30;;;;;;;5.68;2.10;;;23.90;62.30;;;;;;5027801;28;20044;-71
2022/07/31 09:33:12;;;;;;;2.65;1.83;;;24.00;63.00;;;;;;5030231;28;20018;-71
2022/07/31 09:35:49;;;;;;;6.85;1.95;;;24.20;64.90;;;;;;5032262;28;20033;-71
2022/07/31 09:38:15;;;;;;;8.38;2.33;;;24.20;61.80;;;;;;5030689;28;20041;-71
2022/07/31 09:40:44;;;;;;;4.78;1.92;;;24.60;61.60;;;;;;5028118;28;20021;-71
2022/07/31 09:43:18;;;;;;;5.65;1.70;;;24.70;62.30;;;;;;5028142;28;20476;-71
2022/07/31 09:45:47;;;;;;;6.35;1.52;;;24.30;58.80;;;;;;5031304;28;20109;-71
2022/07/31 09:48:13;;;;;;;5.82;1.77;;;24.40;57.90;;;;;;5030077;28;20477;-71
2022/07/31 09:50:52;;;;;;;3.17;1.45;;;24.30;59.80;;;;;;5031462;28;20026;-71
2022/07/31 09:53:18;;;;;;;5.15;2.00;;;24.60;60.80;;;;;;5023513;28;20029;-71
2022/07/31 09:55:55;;;;;;;5.65;2.00;;;24.30;59.30;;;;;;5031057;28;20329;-71
2022/07/31 09:58:22;;;;;;;6.00;1.80;;;24.50;60.10;;;;;;5030161;28;20033;-71
2022/07/31 10:00:51;;;;;;;8.38;1.65;;;25.00;60.90;;;;;;5032028;28;20052;-71
2022/07/31 10:03:18;;;;;;;2.92;1.65;;;25.20;57.10;;;;;;5030188;28;20021;-71
2022/07/31 10:05:45;;;;;;;3.90;2.00;;;25.00;57.40;;;;;;5031752;28;20027;-71
2022/07/31 10:08:12;;;;;;;5.10;1.50;;;24.90;58.90;;;;;;5030974;28;20029;-71
2022/07/31 10:10:41;;;;;;;3.03;1.65;;;25.00;56.70;;;;;;5030980;28;20478;-71
2022/07/31 10:13:09;;;;;;;2.13;1.42;;;25.30;57.10;;;;;;5029300;28;20033;-71
2022/07/31 10:15:36;;;;;;;4.38;1.40;;;25.40;56.30;;;;;;5031515;28;20465;-71
2022/07/31 10:18:02;;;;;;;5.47;1.30;;;26.00;54.80;;;;;;5029667;28;20033;-71
2022/07/31 10:20:31;;;;;;;2.95;1.20;;;26.50;54.00;;;;;;5031467;28;20550;-71
2022/07/31 10:23:09;;;;;;;4.47;1.20;;;26.90;53.40;;;;;;5030602;28;20035;-71
2022/07/31 10:25:40;;;;;;;2.72;1.35;;;26.90;52.00;;;;;;5029316;28;20065;-71
2022/07/31 10:28:06;;;;;;;3.35;0.90;;;27.40;49.60;;;;;;5025921;28;20053;-71
2022/07/31 10:30:32;;;;;;;5.40;1.58;;;27.40;50.30;;;;;;5026756;28;20466;-71
2022/07/31 10:32:58;;;;;;;3.50;1.25;;;26.00;51.90;;;;;;5024246;28;20049;-71
2022/07/31 10:35:24;;;;;;;3.83;1.00;;;26.50;53.10;;;;;;5030672;28;20026;-71
2022/07/31 10:38:00;;;;;;;3.08;1.17;;;26.90;53.60;;;;;;5029828;28;20060;-71
2022/07/31 10:40:35;;;;;;;3.45;1.52;;;27.00;50.10;;;;;;5030452;28;20025;-71
2022/07/31 10:43:27;;;;;;;3.58;1.30;;;28.00;50.10;;;;;;5029737;28;20083;-71
2022/07/31 10:45:54;;;;;;;3.00;1.50;;;28.90;49.50;;;;;;5031005;28;20107;-71
2022/07/31 10:48:21;;;;;;;3.25;1.27;;;28.40;50.60;;;;;;5028892;28;20030;-72
2022/07/31 10:50:58;;;;;;;4.57;1.20;;;27.80;48.70;;;;;;5029822;28;20150;-72
2022/07/31 10:53:24;;;;;;;3.67;1.40;;;28.00;50.60;;;;;;5023107;28;20029;-71
2022/07/31 10:56:01;;;;;;;5.03;1.60;;;27.00;48.70;;;;;;5030387;28;20033;-71
2022/07/31 10:58:29;;;;;;;4.18;1.10;;;27.40;49.10;;;;;;5030216;28;20548;-71
2022/07/31 11:01:08;;;;;;;1.95;0.95;;;28.00;49.40;;;;;;5030750;28;20044;-71
2022/07/31 11:03:39;;;;;;;2.55;1.33;;;27.90;49.20;;;;;;5018146;28;20045;-71
2022/07/31 11:06:05;;;;;;;2.28;1.10;;;27.80;48.00;;;;;;5030523;28;20025;-71
2022/07/31 11:08:47;;;;;;;2.22;1.13;;;27.70;49.20;;;;;;5029192;28;20384;-71
2022/07/31 11:11:14;;;;;;;3.13;1.08;;;27.60;46.40;;;;;;5030899;28;20033;-71
2022/07/31 11:13:54;;;;;;;3.33;1.23;;;27.60;46.20;;;;;;5029034;28;20041;-71
2022/07/31 11:16:21;;;;;;;5.53;1.05;;;27.40;46.50;;;;;;5028063;28;20033;-71
2022/07/31 11:19:08;;;;;;;3.47;1.30;;;28.20;48.30;;;;;;5029640;28;20457;-71
2022/07/31 11:21:37;;;;;;;2.42;1.13;;;28.60;46.20;;;;;;5030425;28;20025;-72
2022/07/31 11:24:17;;;;;;;2.80;1.20;;;28.70;45.50;;;;;;5029115;28;20025;-72
2022/07/31 11:26:50;;;;;;;3.30;1.17;;;29.20;42.80;;;;;;5018473;28;20029;-72
2022/07/31 11:29:31;;;;;;;5.07;1.20;;;29.40;44.10;;;;;;5027728;28;20021;-72
2022/07/31 11:32:13;;;;;;;1.30;0.98;;;28.60;44.90;;;;;;5024661;28;20036;-72
2022/07/31 11:34:50;;;;;;;2.05;0.98;;;28.70;46.20;;;;;;5029483;28;20028;-72
2022/07/31 11:37:22;;;;;;;1.95;1.30;;;28.90;46.10;;;;;;5029069;28;20084;-72
2022/07/31 11:39:51;;;;;;;3.05;1.25;;;28.60;45.40;;;;;;5029140;28;20028;-71
2022/07/31 11:42:17;;;;;;;4.55;1.33;;;28.40;46.80;;;;;;5029803;28;20140;-71
2022/07/31 11:44:43;;;;;;;4.65;1.48;;;27.80;46.80;;;;;;5028243;28;20056;-71
2022/07/31 11:47:09;;;;;;;3.00;1.27;;;27.70;48.20;;;;;;5028618;28;20061;-71
2022/07/31 11:49:35;;;;;;;3.05;1.67;;;27.50;48.50;;;;;;5030007;28;20033;-71
2022/07/31 11:52:03;;;;;;;3.03;1.40;;;27.30;49.10;;;;;;5029544;28;20373;-71
2022/07/31 11:54:29;;;;;;;3.65;1.48;;;27.20;49.90;;;;;;5028894;28;20079;-71
2022/07/31 11:56:55;;;;;;;4.28;1.50;;;26.60;49.50;;;;;;5029965;28;20029;-71
2022/07/31 11:59:37;;;;;;;4.35;1.65;;;26.30;51.40;;;;;;5029998;28;20133;-71
2022/07/31 12:02:08;;;;;;;5.90;1.55;;;26.30;50.60;;;;;;5028546;28;20073;-71
2022/07/31 12:04:35;;;;;;;6.68;1.80;;;26.40;52.00;;;;;;5029695;28;20048;-71
2022/07/31 12:07:01;;;;;;;4.72;1.38;;;26.30;50.70;;;;;;5032221;28;20032;-71
2022/07/31 12:09:27;;;;;;;5.68;1.60;;;26.40;51.30;;;;;;5032921;28;20405;-71
2022/07/31 12:11:53;;;;;;;3.20;1.20;;;26.50;52.00;;;;;;5033731;28;20041;-71
2022/07/31 12:14:34;;;;;;;2.72;1.48;;;26.40;52.40;;;;;;5027863;28;20113;-71
2022/07/31 12:17:00;;;;;;;;;;;26.50;52.60;;;;;;5032715;28;20057;-71
2022/07/31 12:19:31;;;;;;;5.93;1.73;;;26.40;53.10;;;;;;5032873;28;19924;-71
2022/07/31 12:21:58;;;;;;;3.90;1.50;;;26.50;52.60;;;;;;5032790;28;20500;-71
2022/07/31 12:24:25;;;;;;;3.72;1.90;;;26.30;54.30;;;;;;5032954;28;20049;-71
2022/07/31 12:26:54;;;;;;;5.90;1.85;;;26.00;52.40;;;;;;5027052;28;20104;-71
2022/07/31 12:29:31;;;;;;;7.25;1.77;;;26.30;53.00;;;;;;5023032;28;20360;-71
2022/07/31 12:31:57;;;;;;;4.40;1.60;;;26.40;53.10;;;;;;5032093;28;20030;-71
2022/07/31 12:34:37;;;;;;;2.75;1.58;;;26.50;52.20;;;;;;5032578;28;20109;-71
2022/07/31 12:37:07;;;;;;;3.85;1.55;;;26.40;52.20;;;;;;5031059;28;20125;-71
2022/07/31 12:39:46;;;;;;;4.88;1.55;;;26.40;52.40;;;;;;5031507;28;20051;-71
2022/07/31 12:42:20;;;;;;;3.25;1.80;;;26.60;54.50;;;;;;5033199;28;20028;-71